Time;durP1;ratioP1;P1;durP2;ratioP2;P2;SDS_P1;SDS_P2;PMS_P1;PMS_P2;Temp;Humidity;BMP_temperature;BMP_pressure;BME280_temperature;BME280_humidity;BME280_pressure;Samples;Min_cycle;Max_cycle;Signal;HPM_P1;HPM_P2
2022/11/09 00:01:30;;;;;;;4.35;2.38;;;12.60;99.90;;;;;;5034589;28;20488;-65
2022/11/09 00:03:58;;;;;;;3.67;2.15;;;12.50;99.90;;;;;;5035224;28;20123;-64
2022/11/09 00:06:24;;;;;;;4.80;2.08;;;12.50;99.90;;;;;;5046456;28;20052;-64
2022/11/09 00:08:50;;;;;;;6.25;2.20;;;12.60;99.90;;;;;;5048938;28;20127;-64
2022/11/09 00:11:16;;;;;;;5.30;3.42;;;12.40;99.90;;;;;;5045072;28;20142;-64
2022/11/09 00:13:43;;;;;;;5.80;2.80;;;12.30;99.90;;;;;;5035436;28;20030;-64
2022/11/09 00:16:11;;;;;;;7.45;2.85;;;12.40;99.90;;;;;;5035249;28;20037;-64
2022/11/09 00:18:37;;;;;;;7.78;2.63;;;12.50;99.90;;;;;;5033896;28;20045;-64
2022/11/09 00:21:12;;;;;;;8.25;2.75;;;12.30;99.90;;;;;;5035430;28;20091;-64
2022/11/09 00:23:37;;;;;;;6.75;2.80;;;12.20;99.90;;;;;;5047987;28;20045;-65
2022/11/09 00:26:05;;;;;;;9.65;3.20;;;12.20;99.90;;;;;;5039981;28;20045;-64
2022/11/09 00:28:31;;;;;;;8.38;3.50;;;12.30;99.90;;;;;;5042503;28;20041;-64
2022/11/09 00:31:00;;;;;;;9.10;3.20;;;12.20;99.90;;;;;;5035088;28;20040;-64
2022/11/09 00:33:26;;;;;;;5.65;3.33;;;12.30;99.90;;;;;;5044707;28;20475;-64
2022/11/09 00:35:52;;;;;;;8.52;2.92;;;12.40;99.90;;;;;;5037815;28;20109;-64
2022/11/09 00:38:18;;;;;;;9.18;3.55;;;12.40;99.90;;;;;;5042697;28;20041;-64
2022/11/09 00:40:43;;;;;;;4.43;3.03;;;12.70;99.90;;;;;;5039772;28;20403;-64
2022/11/09 00:43:09;;;;;;;6.13;3.03;;;12.60;99.90;;;;;;5034821;28;20041;-64
2022/11/09 00:45:35;;;;;;;10.43;2.75;;;12.50;99.90;;;;;;5033462;28;20171;-64
2022/11/09 00:48:01;;;;;;;8.57;3.05;;;12.60;99.90;;;;;;5034574;28;20045;-64
2022/11/09 00:50:26;;;;;;;6.10;2.92;;;12.60;99.90;;;;;;5045959;28;20033;-64
2022/11/09 00:52:52;;;;;;;11.35;3.10;;;12.70;99.90;;;;;;5037515;28;20038;-64
2022/11/09 00:55:19;;;;;;;7.60;2.85;;;12.60;99.90;;;;;;5033212;28;20084;-64
2022/11/09 00:57:48;;;;;;;7.03;3.03;;;13.00;99.90;;;;;;5033422;28;20081;-64
2022/11/09 01:00:22;;;;;;;7.13;2.63;;;12.90;99.90;;;;;;5034421;28;20076;-64
2022/11/09 01:02:49;;;;;;;6.00;3.40;;;12.90;99.90;;;;;;5034684;28;20034;-64
2022/11/09 01:05:15;;;;;;;9.13;2.50;;;13.10;99.90;;;;;;5034215;28;20057;-64
2022/11/09 01:07:40;;;;;;;9.35;2.95;;;12.90;99.90;;;;;;5034207;28;20053;-64
2022/11/09 01:10:07;;;;;;;6.82;2.45;;;12.80;99.90;;;;;;5037393;28;20045;-64
2022/11/09 01:12:32;;;;;;;7.97;2.85;;;12.90;99.90;;;;;;5034325;28;20433;-65
2022/11/09 01:14:58;;;;;;;8.18;4.10;;;12.80;99.90;;;;;;5034238;28;20121;-64
2022/11/09 01:17:24;;;;;;;12.75;3.72;;;12.90;99.90;;;;;;5033110;28;20143;-64
2022/11/09 01:19:49;;;;;;;10.10;2.80;;;12.80;99.90;;;;;;5033126;28;20511;-64
2022/11/09 01:22:16;;;;;;;8.90;2.47;;;12.90;99.90;;;;;;5034156;28;20480;-64
2022/11/09 01:24:41;;;;;;;6.70;2.40;;;13.20;99.90;;;;;;5032657;28;20048;-65
2022/11/09 01:27:07;;;;;;;6.85;2.25;;;13.00;99.90;;;;;;5033886;28;20446;-64
2022/11/09 01:29:32;;;;;;;5.82;3.38;;;13.00;99.90;;;;;;5032754;28;20029;-64
2022/11/09 01:31:58;;;;;;;10.60;2.65;;;13.00;99.90;;;;;;5032659;28;20048;-64
2022/11/09 01:34:23;;;;;;;7.93;2.65;;;13.00;99.90;;;;;;5032737;28;20460;-64
2022/11/09 01:36:50;;;;;;;7.63;2.40;;;13.10;99.90;;;;;;5033922;28;20519;-64
2022/11/09 01:39:17;;;;;;;6.72;2.38;;;13.00;99.90;;;;;;5036644;28;20029;-64
2022/11/09 01:41:42;;;;;;;9.02;2.53;;;13.10;99.90;;;;;;5044615;28;20037;-64
2022/11/09 01:44:11;;;;;;;9.63;2.65;;;13.10;99.90;;;;;;5033562;28;20033;-64
2022/11/09 01:47:00;;;;;;;8.57;1.90;;;13.20;99.90;;;;;;5041009;28;20048;-64
2022/11/09 01:49:52;;;;;;;11.18;2.53;;;13.10;99.90;;;;;;5037374;28;20080;-64
2022/11/09 01:52:32;;;;;;;7.65;1.88;;;13.20;99.90;;;;;;5032572;28;20091;-66
2022/11/09 01:55:04;;;;;;;4.90;2.20;;;13.20;99.90;;;;;;5044975;28;20052;-64
2022/11/09 01:57:38;;;;;;;7.22;2.60;;;13.10;99.90;;;;;;5042729;28;20095;-64
2022/11/09 02:00:10;;;;;;;6.50;2.20;;;13.10;99.90;;;;;;5049384;28;20090;-64
2022/11/09 02:02:39;;;;;;;8.90;3.47;;;13.20;99.90;;;;;;5038936;28;20081;-64
2022/11/09 02:05:08;;;;;;;9.40;2.47;;;13.10;99.90;;;;;;5031508;28;20061;-64
2022/11/09 02:07:35;;;;;;;6.72;2.78;;;12.90;99.90;;;;;;5033137;28;20041;-64
2022/11/09 02:10:07;;;;;;;6.18;2.28;;;13.10;99.90;;;;;;5033314;28;20080;-64
2022/11/09 02:12:34;;;;;;;11.63;2.10;;;13.10;99.90;;;;;;5032202;28;20037;-64
2022/11/09 02:15:03;;;;;;;8.60;2.58;;;13.10;99.90;;;;;;5033097;28;20395;-64
2022/11/09 02:17:29;;;;;;;9.45;2.60;;;13.00;99.90;;;;;;5031773;28;20041;-64
2022/11/09 02:19:59;;;;;;;8.38;2.40;;;13.00;99.90;;;;;;5028713;28;20052;-64
2022/11/09 02:22:25;;;;;;;10.48;2.55;;;13.00;99.90;;;;;;5044359;28;20045;-64
2022/11/09 02:24:51;;;;;;;7.47;2.05;;;13.00;99.90;;;;;;5035689;28;20041;-64
2022/11/09 02:27:16;;;;;;;10.60;2.78;;;13.10;99.90;;;;;;5041254;28;20056;-64
2022/11/09 02:29:45;;;;;;;6.97;2.45;;;12.90;99.90;;;;;;5036198;28;20395;-64
2022/11/09 02:32:18;;;;;;;7.78;2.35;;;12.90;99.90;;;;;;5031747;28;20041;-64
2022/11/09 02:34:44;;;;;;;6.28;1.90;;;12.90;99.90;;;;;;5031519;28;20483;-64
2022/11/09 02:37:10;;;;;;;7.65;1.88;;;13.00;99.90;;;;;;5033043;28;20041;-64
2022/11/09 02:39:36;;;;;;;11.30;2.35;;;13.10;99.90;;;;;;5032982;28;20037;-64
2022/11/09 02:42:07;;;;;;;5.97;2.05;;;13.00;99.90;;;;;;5032802;28;20120;-64
2022/11/09 02:44:44;;;;;;;6.10;2.20;;;13.00;99.90;;;;;;5032871;28;20045;-65
2022/11/09 02:47:09;;;;;;;8.70;2.88;;;13.00;99.90;;;;;;5031655;28;20391;-64
2022/11/09 02:49:35;;;;;;;10.20;2.20;;;12.80;99.90;;;;;;5033071;28;20029;-64
2022/11/09 02:52:00;;;;;;;9.45;2.65;;;12.80;99.90;;;;;;5031411;28;20073;-64
2022/11/09 02:54:26;;;;;;;10.45;3.03;;;12.80;99.90;;;;;;5032787;28;20080;-64
2022/11/09 02:56:51;;;;;;;6.55;2.30;;;12.80;99.90;;;;;;5046677;28;20096;-64
2022/11/09 02:59:17;;;;;;;9.27;2.50;;;12.70;99.90;;;;;;5031480;28;20045;-64
2022/11/09 03:01:42;;;;;;;9.45;2.72;;;12.50;99.90;;;;;;5032748;28;20045;-64
2022/11/09 03:04:08;;;;;;;8.15;1.83;;;12.70;99.90;;;;;;5032470;28;20064;-64
2022/11/09 03:06:34;;;;;;;11.88;3.17;;;12.90;99.90;;;;;;5032528;28;20463;-64
2022/11/09 03:09:04;;;;;;;7.38;2.63;;;12.70;99.90;;;;;;5031150;28;20061;-64
2022/11/09 03:11:31;;;;;;;7.70;1.73;;;;;;;;;;5032797;28;20410;-67
2022/11/09 03:13:57;;;;;;;9.75;3.22;;;12.80;99.90;;;;;;5031210;28;20044;-65
2022/11/09 03:16:23;;;;;;;5.97;2.08;;;13.00;99.90;;;;;;5031377;28;20041;-64
2022/11/09 03:18:48;;;;;;;10.35;2.35;;;12.90;99.90;;;;;;5044735;28;20399;-64
2022/11/09 03:21:14;;;;;;;8.68;2.25;;;12.60;99.90;;;;;;5032858;28;20041;-64
2022/11/09 03:23:39;;;;;;;8.88;2.30;;;12.80;99.90;;;;;;5032633;28;20041;-64
2022/11/09 03:26:05;;;;;;;7.68;2.10;;;;;;;;;;5031015;28;20052;-64
2022/11/09 03:28:31;;;;;;;9.15;1.77;;;12.70;99.90;;;;;;5031204;28;20048;-64
2022/11/09 03:30:56;;;;;;;9.15;2.78;;;12.70;99.90;;;;;;5032625;28;20423;-64
2022/11/09 03:33:22;;;;;;;11.60;2.28;;;12.60;99.90;;;;;;5035682;28;20045;-64
2022/11/09 03:35:48;;;;;;;11.55;2.30;;;12.50;99.90;;;;;;5036179;28;20034;-64
2022/11/09 03:38:13;;;;;;;10.52;2.30;;;12.60;99.90;;;;;;5034922;28;20041;-64
2022/11/09 03:40:39;;;;;;;9.68;3.22;;;12.60;99.90;;;;;;5034816;28;20627;-64
2022/11/09 03:43:05;;;;;;;12.93;2.58;;;12.50;99.90;;;;;;5035355;28;20049;-64
2022/11/09 03:45:30;;;;;;;10.70;2.63;;;12.40;99.90;;;;;;5035861;28;20037;-64
2022/11/09 03:47:58;;;;;;;9.73;2.15;;;;;;;;;;5034585;28;20471;-66
2022/11/09 03:50:25;;;;;;;11.63;2.25;;;12.50;99.90;;;;;;5034599;28;20069;-64
2022/11/09 03:52:51;;;;;;;9.45;2.53;;;12.50;99.90;;;;;;5035832;28;20522;-64
2022/11/09 03:55:17;;;;;;;8.38;2.45;;;12.60;99.90;;;;;;5035612;28;20030;-65
2022/11/09 03:57:45;;;;;;;8.65;2.20;;;12.60;99.90;;;;;;5035820;28;20483;-66
2022/11/09 04:00:12;;;;;;;7.72;2.22;;;12.70;99.90;;;;;;5035581;28;20076;-64
2022/11/09 04:02:38;;;;;;;4.88;1.77;;;12.60;99.90;;;;;;5035694;28;20686;-64
2022/11/09 04:05:05;;;;;;;12.35;2.42;;;12.60;99.90;;;;;;5035248;28;20511;-64
2022/11/09 04:07:30;;;;;;;9.30;2.08;;;12.60;99.90;;;;;;5035251;28;20046;-64
2022/11/09 04:09:56;;;;;;;10.85;2.15;;;12.60;99.90;;;;;;5034174;28;20040;-64
2022/11/09 04:12:22;;;;;;;11.32;2.20;;;12.70;99.90;;;;;;5035389;28;20410;-65
2022/11/09 04:14:47;;;;;;;7.43;2.17;;;12.60;99.90;;;;;;5034508;28;20042;-64
2022/11/09 04:17:13;;;;;;;9.43;2.25;;;12.80;99.90;;;;;;5034391;28;20096;-64
2022/11/09 04:19:39;;;;;;;9.02;2.05;;;12.50;99.90;;;;;;5035375;28;20037;-64
2022/11/09 04:22:04;;;;;;;10.82;2.75;;;12.60;99.90;;;;;;5034301;28;20124;-64
2022/11/09 04:24:30;;;;;;;6.68;2.10;;;12.60;99.90;;;;;;5035167;28;20499;-64
2022/11/09 04:26:55;;;;;;;9.98;3.30;;;12.50;99.90;;;;;;5033917;28;20492;-64
2022/11/09 04:29:21;;;;;;;7.15;2.15;;;12.70;99.90;;;;;;5033756;28;20067;-64
2022/11/09 04:31:50;;;;;;;8.20;2.35;;;12.80;99.90;;;;;;5035141;28;20080;-64
2022/11/09 04:34:16;;;;;;;8.05;2.47;;;12.50;99.90;;;;;;5035035;28;20033;-64
2022/11/09 04:36:42;;;;;;;9.30;2.30;;;12.50;99.90;;;;;;5034993;28;20033;-64
2022/11/09 04:39:08;;;;;;;7.07;2.17;;;12.60;99.90;;;;;;5035121;28;20077;-64
2022/11/09 04:41:34;;;;;;;7.65;2.08;;;12.50;99.90;;;;;;5033775;28;20077;-64
2022/11/09 04:43:59;;;;;;;10.98;2.45;;;12.90;99.90;;;;;;5033800;28;20049;-64
2022/11/09 04:46:26;;;;;;;6.13;2.10;;;12.80;99.90;;;;;;5033391;28;20072;-64
2022/11/09 04:48:52;;;;;;;8.65;2.35;;;12.70;99.90;;;;;;5033628;28;20045;-64
2022/11/09 04:51:18;;;;;;;10.77;2.30;;;12.70;99.90;;;;;;5034879;28;20041;-64
2022/11/09 04:53:44;;;;;;;8.02;2.00;;;12.70;99.90;;;;;;5034625;28;20037;-64
2022/11/09 04:56:10;;;;;;;11.98;1.73;;;12.80;99.90;;;;;;5034824;28;20103;-64
2022/11/09 04:58:36;;;;;;;6.10;2.20;;;12.80;99.90;;;;;;5038311;28;20518;-64
2022/11/09 05:01:03;;;;;;;11.35;2.25;;;12.80;99.90;;;;;;5044804;28;20037;-64
2022/11/09 05:03:29;;;;;;;6.65;2.10;;;12.70;99.90;;;;;;5032988;28;20042;-64
2022/11/09 05:05:55;;;;;;;6.47;1.90;;;12.70;99.90;;;;;;5034590;28;20179;-64
2022/11/09 05:08:20;;;;;;;8.07;2.20;;;12.80;99.90;;;;;;5034162;28;20064;-64
2022/11/09 05:10:46;;;;;;;7.05;1.90;;;12.70;99.90;;;;;;5048322;28;20435;-64
2022/11/09 05:13:12;;;;;;;8.32;2.38;;;12.70;99.90;;;;;;5034281;28;20112;-64
2022/11/09 05:15:38;;;;;;;11.52;2.22;;;12.80;99.90;;;;;;5034100;28;20037;-66
2022/11/09 05:18:05;;;;;;;8.38;2.28;;;12.80;99.90;;;;;;5032963;28;20037;-64
2022/11/09 05:20:30;;;;;;;8.02;2.67;;;12.60;99.90;;;;;;5045121;28;20127;-64
2022/11/09 05:25:42;;;;;;;8.75;2.00;;;12.70;99.90;;;;;;5032777;28;20042;-64
2022/11/09 05:28:07;;;;;;;11.65;2.50;;;12.80;99.90;;;;;;5037555;28;20041;-64
2022/11/09 05:30:33;;;;;;;11.10;2.80;;;;;;;;;;5043053;28;20452;-64
2022/11/09 05:32:59;;;;;;;5.28;2.22;;;12.60;99.90;;;;;;5033916;28;20040;-64
2022/11/09 05:35:24;;;;;;;9.70;2.30;;;12.60;99.90;;;;;;5034070;28;20158;-64
2022/11/09 05:37:50;;;;;;;8.88;2.20;;;12.60;99.90;;;;;;5033714;28;20488;-64
2022/11/09 05:40:18;;;;;;;8.05;1.98;;;12.50;99.90;;;;;;5033853;28;20068;-64
2022/11/09 05:42:44;;;;;;;12.80;3.65;;;12.60;99.90;;;;;;5032504;28;20041;-64
2022/11/09 05:45:12;;;;;;;9.23;2.53;;;12.40;99.90;;;;;;5038942;28;20041;-64
2022/11/09 05:47:39;;;;;;;8.65;2.30;;;12.40;99.90;;;;;;5042103;28;20135;-64
2022/11/09 05:50:07;;;;;;;10.15;2.70;;;12.40;99.90;;;;;;5033722;28;20033;-64
2022/11/09 05:52:33;;;;;;;9.45;2.47;;;;;;;;;;5033523;28;20506;-64
2022/11/09 05:54:59;;;;;;;7.20;2.05;;;12.30;99.90;;;;;;5033228;28;20046;-64
2022/11/09 05:57:25;;;;;;;8.25;2.20;;;;;;;;;;5033531;28;20037;-67
2022/11/09 05:59:51;;;;;;;10.35;2.25;;;12.60;99.90;;;;;;5016129;28;20041;-65
2022/11/09 06:02:17;;;;;;;9.48;2.67;;;12.20;99.90;;;;;;5047161;28;20506;-64
2022/11/09 06:04:42;;;;;;;9.85;2.10;;;12.30;99.90;;;;;;5033245;28;20049;-64
2022/11/09 06:07:08;;;;;;;11.50;2.53;;;12.50;99.90;;;;;;5031781;28;20050;-65
2022/11/09 06:09:33;;;;;;;8.07;2.38;;;12.30;99.90;;;;;;5033199;28;20036;-64
2022/11/09 06:11:59;;;;;;;9.45;2.13;;;12.40;99.90;;;;;;5033205;28;20557;-64
2022/11/09 06:14:24;;;;;;;10.15;2.05;;;12.30;99.90;;;;;;5033338;28;20492;-64
2022/11/09 06:16:50;;;;;;;10.93;2.63;;;12.30;99.90;;;;;;5033328;28;20045;-64
2022/11/09 06:19:15;;;;;;;9.40;2.58;;;12.40;99.90;;;;;;5031775;28;20041;-64
2022/11/09 06:21:41;;;;;;;11.82;2.65;;;12.40;99.90;;;;;;5033135;28;20098;-66
2022/11/09 06:24:07;;;;;;;14.20;2.35;;;12.30;99.90;;;;;;5031790;28;20046;-65
2022/11/09 06:26:32;;;;;;;8.80;2.80;;;12.20;99.90;;;;;;5033145;28;20041;-64
2022/11/09 06:28:58;;;;;;;11.50;2.42;;;12.30;99.90;;;;;;5044926;28;20044;-64
2022/11/09 06:31:23;;;;;;;6.85;2.28;;;12.20;99.90;;;;;;5033714;28;20038;-64
2022/11/09 06:33:49;;;;;;;7.50;2.28;;;12.20;99.90;;;;;;5032860;28;20476;-64
2022/11/09 06:36:15;;;;;;;10.23;2.35;;;12.10;99.90;;;;;;5031616;28;20427;-64
2022/11/09 06:38:41;;;;;;;7.25;1.95;;;12.20;99.90;;;;;;5031733;28;20052;-64
2022/11/09 06:41:07;;;;;;;7.05;1.98;;;12.10;99.90;;;;;;5035344;28;20461;-64
2022/11/09 06:43:33;;;;;;;9.45;2.10;;;12.00;99.90;;;;;;5031562;28;20041;-64
2022/11/09 06:46:02;;;;;;;6.30;1.90;;;12.00;99.90;;;;;;5044877;28;20460;-64
2022/11/09 06:48:27;;;;;;;7.13;2.45;;;12.10;99.90;;;;;;5034314;28;20059;-64
2022/11/09 06:50:53;;;;;;;11.25;2.10;;;12.20;99.90;;;;;;5040619;28;20483;-64
2022/11/09 06:53:19;;;;;;;9.95;2.80;;;;;;;;;;5036328;28;20512;-64
2022/11/09 06:55:45;;;;;;;5.43;1.83;;;12.30;99.90;;;;;;5032653;28;20381;-64
2022/11/09 06:58:14;;;;;;;3.90;1.65;;;12.20;99.90;;;;;;5031426;28;20065;-64
2022/11/09 07:00:41;;;;;;;7.47;2.00;;;;;;;;;;5031844;28;20056;-64
2022/11/09 07:03:07;;;;;;;5.95;1.85;;;12.20;99.90;;;;;;5032821;28;20120;-64
2022/11/09 07:05:38;;;;;;;5.30;1.85;;;12.10;99.90;;;;;;5031149;28;20125;-64
2022/11/09 07:08:03;;;;;;;7.18;1.92;;;12.20;99.90;;;;;;5035152;28;20052;-64
2022/11/09 07:10:29;;;;;;;10.13;2.38;;;12.10;99.90;;;;;;5034953;28;20042;-64
2022/11/09 07:12:57;;;;;;;7.85;2.47;;;12.30;99.90;;;;;;5036407;28;20495;-64
2022/11/09 07:15:22;;;;;;;9.60;2.40;;;12.00;99.90;;;;;;5036400;28;20041;-64
2022/11/09 07:17:48;;;;;;;7.80;2.72;;;11.90;99.90;;;;;;5036279;28;20048;-64
2022/11/09 07:20:14;;;;;;;10.40;2.10;;;12.10;99.90;;;;;;5036355;28;20112;-64
2022/11/09 07:22:40;;;;;;;9.07;2.45;;;12.10;99.90;;;;;;5035119;28;20073;-64
2022/11/09 07:25:08;;;;;;;13.48;2.75;;;12.10;99.90;;;;;;5034868;28;20052;-63
2022/11/09 07:27:34;;;;;;;9.07;2.17;;;12.20;99.90;;;;;;5035821;28;20484;-64
2022/11/09 07:30:00;;;;;;;7.85;2.33;;;12.30;99.90;;;;;;5035979;28;20401;-63
2022/11/09 07:32:25;;;;;;;10.13;2.72;;;12.30;99.90;;;;;;5034982;28;20040;-63
2022/11/09 07:34:51;;;;;;;9.70;2.55;;;12.30;99.90;;;;;;5035898;28;20376;-64
2022/11/09 07:37:16;;;;;;;9.20;2.30;;;12.60;99.90;;;;;;5035839;28;20484;-63
2022/11/09 07:39:42;;;;;;;11.20;2.20;;;12.40;99.90;;;;;;5038540;28;20063;-63
2022/11/09 07:42:07;;;;;;;9.40;2.38;;;12.40;99.90;;;;;;5035558;28;20156;-64
2022/11/09 07:44:33;;;;;;;16.02;2.20;;;12.50;99.90;;;;;;5034934;28;20486;-65
2022/11/09 07:46:59;;;;;;;10.85;2.22;;;12.50;99.90;;;;;;5051333;28;20041;-64
2022/11/09 07:49:24;;;;;;;8.63;2.83;;;12.60;99.90;;;;;;5052397;28;20029;-63
2022/11/09 07:51:50;;;;;;;9.20;2.25;;;12.70;99.90;;;;;;5042857;28;20029;-64
2022/11/09 07:54:15;;;;;;;9.10;2.25;;;12.60;99.90;;;;;;5043273;28;20037;-64
2022/11/09 07:56:41;;;;;;;12.63;3.20;;;12.70;99.90;;;;;;5048919;28;20041;-64
2022/11/09 07:59:06;;;;;;;7.00;1.92;;;12.80;99.90;;;;;;5035525;28;20758;-64
2022/11/09 08:01:32;;;;;;;6.68;2.22;;;;;;;;;;5036977;28;20037;-64
2022/11/09 08:03:58;;;;;;;10.98;2.30;;;12.90;99.90;;;;;;5044575;28;20052;-64
2022/11/09 08:06:26;;;;;;;8.60;2.70;;;13.10;99.90;;;;;;5036504;28;20368;-63
2022/11/09 08:08:54;;;;;;;11.75;2.72;;;13.40;99.90;;;;;;5038836;28;20029;-63
2022/11/09 08:11:20;;;;;;;5.47;2.13;;;13.40;99.90;;;;;;5039612;28;20045;-63
2022/11/09 08:13:45;;;;;;;10.63;2.38;;;13.40;99.90;;;;;;5054383;28;20044;-63
2022/11/09 08:16:11;;;;;;;9.65;2.95;;;13.50;99.90;;;;;;5040446;28;20510;-65
2022/11/09 08:18:36;;;;;;;11.85;2.65;;;13.60;99.90;;;;;;5032929;28;20506;-65
2022/11/09 08:21:03;;;;;;;9.13;2.28;;;13.70;99.90;;;;;;5034610;28;20045;-64
2022/11/09 08:23:28;;;;;;;10.35;1.90;;;14.20;99.90;;;;;;5039698;28;20112;-63
2022/11/09 08:25:54;;;;;;;9.07;2.13;;;;;;;;;;5043455;28;20128;-63
2022/11/09 08:28:21;;;;;;;9.27;2.72;;;14.30;99.90;;;;;;5046190;28;20427;-63
2022/11/09 08:30:57;;;;;;;10.95;2.95;;;14.00;99.90;;;;;;5041844;28;20037;-63
2022/11/09 08:33:24;;;;;;;11.02;2.25;;;14.30;99.90;;;;;;5042938;28;20029;-63
2022/11/09 08:35:49;;;;;;;10.63;2.22;;;14.20;99.90;;;;;;5018620;28;20037;-63
2022/11/09 08:38:15;;;;;;;10.93;2.17;;;14.40;99.90;;;;;;5035349;28;20124;-63
2022/11/09 08:40:41;;;;;;;6.47;1.85;;;;;;;;;;5038695;28;20052;-63
2022/11/09 08:43:08;;;;;;;7.25;2.10;;;15.10;99.90;;;;;;5034811;28;20045;-63
2022/11/09 08:45:36;;;;;;;12.65;2.63;;;14.80;99.90;;;;;;5042205;28;20451;-63
2022/11/09 08:48:03;;;;;;;9.27;1.90;;;14.70;99.90;;;;;;5037153;28;20122;-63
2022/11/09 08:50:29;;;;;;;10.00;2.75;;;14.60;99.90;;;;;;5036547;28;20033;-65
2022/11/09 08:52:55;;;;;;;10.77;2.58;;;14.80;99.90;;;;;;5037288;28;20504;-65
2022/11/09 08:55:21;;;;;;;12.10;2.72;;;14.90;99.90;;;;;;5034585;28;20068;-65
2022/11/09 08:57:47;;;;;;;10.32;2.10;;;14.80;99.90;;;;;;5039828;28;20053;-63
2022/11/09 09:00:13;;;;;;;10.43;2.42;;;14.90;99.90;;;;;;5036239;28;20040;-63
2022/11/09 09:02:39;;;;;;;12.70;2.20;;;14.90;99.90;;;;;;5040647;28;20091;-64
2022/11/09 09:05:04;;;;;;;9.73;1.80;;;14.90;99.90;;;;;;5034638;28;20053;-63
2022/11/09 09:07:30;;;;;;;10.35;2.10;;;14.80;99.90;;;;;;5034143;28;20045;-63
2022/11/09 09:09:56;;;;;;;12.30;3.08;;;14.80;99.90;;;;;;5042899;28;20041;-64
2022/11/09 09:12:21;;;;;;;12.07;3.35;;;14.90;99.90;;;;;;5038169;28;20037;-64
2022/11/09 09:14:47;;;;;;;8.85;2.85;;;14.70;99.90;;;;;;5032958;28;20048;-63
2022/11/09 09:17:13;;;;;;;6.75;2.25;;;14.90;99.90;;;;;;5053423;28;20127;-63
2022/11/09 09:19:38;;;;;;;7.97;2.08;;;15.00;99.90;;;;;;5034888;28;20404;-64
2022/11/09 09:22:04;;;;;;;8.65;2.13;;;15.70;99.90;;;;;;5042940;28;20034;-64
2022/11/09 09:24:30;;;;;;;11.70;2.45;;;16.10;99.90;;;;;;5038197;28;20088;-64
2022/11/09 09:26:55;;;;;;;13.57;2.78;;;16.20;99.90;;;;;;5032804;28;20447;-63
2022/11/09 09:29:21;;;;;;;12.13;2.67;;;16.40;99.90;;;;;;5045406;28;20063;-63
2022/11/09 09:31:46;;;;;;;6.47;2.20;;;17.00;99.90;;;;;;5035247;28;20116;-63
2022/11/09 09:34:12;;;;;;;9.75;2.58;;;17.20;99.90;;;;;;5040798;28;20042;-64
2022/11/09 09:36:38;;;;;;;11.50;1.90;;;17.40;99.90;;;;;;5036993;28;20040;-63
2022/11/09 09:39:03;;;;;;;7.85;2.33;;;17.20;99.90;;;;;;5033964;28;20045;-64
2022/11/09 09:41:32;;;;;;;8.93;2.45;;;17.30;99.90;;;;;;5039636;28;20040;-63
2022/11/09 09:44:06;;;;;;;13.00;2.38;;;15.80;99.90;;;;;;5037385;28;20399;-63
2022/11/09 09:46:40;;;;;;;7.80;2.65;;;15.70;99.90;;;;;;5033982;28;20046;-63
2022/11/09 09:49:30;;;;;;;10.05;2.80;;;15.30;99.90;;;;;;5032748;28;20491;-63
2022/11/09 09:52:04;;;;;;;9.10;2.50;;;15.20;99.90;;;;;;5034185;28;20042;-63
2022/11/09 09:54:36;;;;;;;9.60;2.55;;;15.30;99.90;;;;;;5033071;28;20491;-63
2022/11/09 09:57:02;;;;;;;10.68;3.08;;;14.80;99.90;;;;;;5039992;28;20045;-64
2022/11/09 09:59:43;;;;;;;8.10;2.65;;;14.80;99.90;;;;;;5032109;28;20045;-63
2022/11/09 10:02:19;;;;;;;11.98;2.53;;;14.70;99.90;;;;;;5031991;28;20052;-63
2022/11/09 10:04:45;;;;;;;9.88;2.60;;;14.80;99.90;;;;;;5051311;28;20060;-63
2022/11/09 10:07:18;;;;;;;12.07;3.40;;;14.70;99.90;;;;;;5033128;28;20041;-63
2022/11/09 10:10:03;;;;;;;8.52;2.50;;;14.70;99.90;;;;;;5042916;28;20046;-63
2022/11/09 10:12:56;;;;;;;12.35;2.65;;;14.80;99.90;;;;;;5037914;28;20052;-63
2022/11/09 10:15:27;;;;;;;11.07;3.25;;;14.60;99.90;;;;;;5033276;28;20044;-64
2022/11/09 10:18:21;;;;;;;13.43;3.05;;;14.60;99.90;;;;;;5045639;28;20049;-64
2022/11/09 10:21:26;;;;;;;13.82;3.75;;;14.50;99.90;;;;;;5042034;28;20044;-64
2022/11/09 10:24:02;;;;;;;8.43;2.60;;;14.30;99.90;;;;;;5034827;28;20099;-64
2022/11/09 10:26:47;;;;;;;8.95;2.90;;;14.40;99.90;;;;;;5046406;28;20033;-62
2022/11/09 10:29:26;;;;;;;11.52;3.35;;;14.40;99.90;;;;;;5046043;28;20095;-63
2022/11/09 10:31:54;;;;;;;12.82;4.18;;;14.20;99.90;;;;;;5034698;28;20060;-63
2022/11/09 10:34:27;;;;;;;12.73;3.20;;;14.20;99.90;;;;;;5051511;28;20174;-64
2022/11/09 10:36:57;;;;;;;7.53;2.72;;;14.20;99.90;;;;;;5036024;28;20041;-63
2022/11/09 10:39:26;;;;;;;11.27;2.72;;;14.40;99.90;;;;;;5032545;28;20099;-63
2022/11/09 10:41:51;;;;;;;11.70;3.45;;;14.30;99.90;;;;;;5045748;28;20088;-63
2022/11/09 10:44:18;;;;;;;11.07;3.15;;;14.30;99.90;;;;;;5036665;28;20073;-63
2022/11/09 10:47:09;;;;;;;10.40;2.55;;;14.20;99.90;;;;;;5016862;28;20084;-62
2022/11/09 10:49:35;;;;;;;13.50;3.00;;;14.20;99.90;;;;;;5033774;28;20041;-62
2022/11/09 10:52:01;;;;;;;11.93;2.72;;;;;;;;;;5035327;28;20044;-63
2022/11/09 10:54:36;;;;;;;11.43;3.20;;;14.40;99.90;;;;;;5040908;28;20391;-62
2022/11/09 10:57:23;;;;;;;10.95;2.75;;;14.60;99.90;;;;;;5045310;28;20038;-63
2022/11/09 10:59:52;;;;;;;12.57;3.10;;;14.60;99.90;;;;;;5033794;28;20048;-62
2022/11/09 11:02:24;;;;;;;14.35;3.40;;;14.60;99.90;;;;;;5031361;28;20395;-62
2022/11/09 11:05:05;;;;;;;12.88;3.38;;;14.70;99.90;;;;;;5040794;28;20126;-62
2022/11/09 11:07:32;;;;;;;12.60;3.50;;;14.40;99.90;;;;;;5032551;28;20124;-63
2022/11/09 11:10:08;;;;;;;9.65;2.72;;;14.40;99.90;;;;;;5040793;28;20117;-64
2022/11/09 11:12:34;;;;;;;8.13;2.78;;;14.40;99.90;;;;;;5035966;28;20083;-62
2022/11/09 11:14:59;;;;;;;12.40;3.35;;;14.50;99.90;;;;;;5031191;28;20087;-63
2022/11/09 11:17:28;;;;;;;11.43;2.83;;;14.40;99.90;;;;;;5029749;28;20399;-64
2022/11/09 11:19:53;;;;;;;11.65;3.63;;;14.20;99.90;;;;;;5048923;28;20040;-63
2022/11/09 11:22:26;;;;;;;7.38;3.28;;;14.30;99.90;;;;;;5031918;28;20103;-65
2022/11/09 11:25:00;;;;;;;8.38;3.05;;;14.10;99.90;;;;;;5038872;28;20041;-64
2022/11/09 11:27:31;;;;;;;16.50;3.70;;;13.90;99.90;;;;;;5037110;28;20042;-64
2022/11/09 11:30:18;;;;;;;11.77;3.75;;;14.00;99.90;;;;;;5033996;28;20518;-64
2022/11/09 11:32:44;;;;;;;8.73;3.15;;;14.20;99.90;;;;;;5032665;28;20117;-64
2022/11/09 11:35:35;;;;;;;16.10;3.78;;;14.00;99.90;;;;;;5019469;28;20049;-63
2022/11/09 11:38:22;;;;;;;8.70;3.33;;;14.00;99.90;;;;;;5033419;28;20038;-63
2022/11/09 11:41:04;;;;;;;9.93;3.08;;;14.00;99.90;;;;;;5035572;28;20063;-63
2022/11/09 11:43:50;;;;;;;10.75;3.03;;;13.90;99.90;;;;;;5033266;28;20056;-64
2022/11/09 11:46:16;;;;;;;9.63;3.40;;;13.80;99.90;;;;;;5030693;28;20053;-64
2022/11/09 11:48:53;;;;;;;12.40;3.70;;;13.80;99.90;;;;;;5032207;28;20484;-64
2022/11/09 11:51:19;;;;;;;12.25;3.22;;;13.90;99.90;;;;;;5030645;28;20117;-63
2022/11/09 11:54:14;;;;;;;12.05;3.63;;;13.80;99.90;;;;;;5032857;28;20128;-63
2022/11/09 11:56:43;;;;;;;9.95;5.05;;;13.90;99.90;;;;;;5019545;28;20060;-63
2022/11/09 11:59:35;;;;;;;12.20;3.70;;;13.70;99.90;;;;;;5038338;28;20051;-63
2022/11/09 12:02:46;;;;;;;13.75;4.90;;;13.70;99.90;;;;;;5034616;28;20432;-64
2022/11/09 12:05:27;;;;;;;10.85;4.55;;;13.80;99.90;;;;;;5036351;28;20057;-63
2022/11/09 12:08:21;;;;;;;9.10;3.80;;;13.80;99.90;;;;;;5035993;28;20040;-64
2022/11/09 12:10:55;;;;;;;11.43;3.92;;;13.80;99.90;;;;;;5037907;28;20033;-63
2022/11/09 12:13:37;;;;;;;9.40;3.40;;;13.80;99.90;;;;;;5033744;28;20519;-63
2022/11/09 12:16:06;;;;;;;10.75;3.80;;;13.80;99.90;;;;;;5036210;28;20036;-63
2022/11/09 12:18:48;;;;;;;12.48;3.75;;;13.70;99.90;;;;;;5034133;28;20044;-63
2022/11/09 12:21:20;;;;;;;13.20;3.67;;;13.90;99.90;;;;;;5038954;28;20410;-63
2022/11/09 12:24:20;;;;;;;10.10;3.30;;;13.90;99.90;;;;;;5035845;28;20047;-66
2022/11/09 12:27:15;;;;;;;11.93;2.95;;;14.00;99.90;;;;;;5034929;28;20578;-65
2022/11/09 12:29:58;;;;;;;8.05;2.40;;;14.00;99.90;;;;;;5038127;28;20235;-64
2022/11/09 12:32:28;;;;;;;12.10;3.30;;;14.10;99.90;;;;;;5039466;28;20522;-64
2022/11/09 12:35:02;;;;;;;6.97;2.35;;;13.90;99.90;;;;;;5034786;28;20522;-64
2022/11/09 12:37:47;;;;;;;8.40;2.30;;;13.90;99.90;;;;;;5036311;28;20041;-65
2022/11/09 12:40:23;;;;;;;7.00;3.33;;;13.90;99.90;;;;;;5020322;28;20565;-64
2022/11/09 12:43:30;;;;;;;8.07;2.28;;;13.90;99.90;;;;;;5033829;28;20053;-64
2022/11/09 12:45:58;;;;;;;7.40;2.17;;;13.90;99.90;;;;;;5037944;28;20065;-64
2022/11/09 12:48:29;;;;;;;10.07;2.33;;;13.90;99.90;;;;;;5036396;28;20514;-64
2022/11/09 12:50:58;;;;;;;8.55;2.50;;;13.80;99.90;;;;;;5034457;28;20125;-64
2022/11/09 12:53:32;;;;;;;9.48;2.33;;;13.90;99.90;;;;;;5036930;28;20511;-64
2022/11/09 12:56:00;;;;;;;6.28;3.92;;;13.80;99.90;;;;;;5034550;28;20068;-64
2022/11/09 12:58:34;;;;;;;11.13;2.63;;;13.70;99.90;;;;;;5037465;28;20492;-64
2022/11/09 13:01:25;;;;;;;10.97;2.63;;;13.70;99.90;;;;;;5033138;28;20045;-64